sensor_id;sensor_type;location;lat;lon;timestamp;temperature;humidity
41447;DHT22;27185;52.040;4.490;2024-01-15T00:02:14;5.50;99.90
41447;DHT22;27185;52.040;4.490;2024-01-15T00:05:00;5.50;99.90
41447;DHT22;27185;52.040;4.490;2024-01-15T00:07:46;5.50;99.90
41447;DHT22;27185;52.040;4.490;2024-01-15T00:10:31;5.50;99.90
41447;DHT22;27185;52.040;4.490;2024-01-15T00:13:17;5.50;99.90
41447;DHT22;27185;52.040;4.490;2024-01-15T00:16:03;5.50;99.90
41447;DHT22;27185;52.040;4.490;2024-01-15T00:18:49;5.50;99.90
41447;DHT22;27185;52.040;4.490;2024-01-15T00:21:34;5.50;99.90
41447;DHT22;27185;52.040;4.490;2024-01-15T00:24:20;5.40;99.90
41447;DHT22;27185;52.040;4.490;2024-01-15T00:27:06;5.40;99.90
41447;DHT22;27185;52.040;4.490;2024-01-15T00:29:51;5.40;99.90
41447;DHT22;27185;52.040;4.490;2024-01-15T00:32:37;5.40;99.90
41447;DHT22;27185;52.040;4.490;2024-01-15T00:35:23;5.40;99.90
41447;DHT22;27185;52.040;4.490;2024-01-15T00:38:08;5.40;99.90
41447;DHT22;27185;52.040;4.490;2024-01-15T00:40:54;5.40;99.90
41447;DHT22;27185;52.040;4.490;2024-01-15T00:43:40;5.40;99.90
41447;DHT22;27185;52.040;4.490;2024-01-15T00:46:25;5.50;99.90
41447;DHT22;27185;52.040;4.490;2024-01-15T00:49:12;5.50;99.90
41447;DHT22;27185;52.040;4.490;2024-01-15T00:51:58;5.50;99.90
41447;DHT22;27185;52.040;4.490;2024-01-15T00:54:44;5.50;99.90
41447;DHT22;27185;52.040;4.490;2024-01-15T00:57:29;5.50;99.90
41447;DHT22;27185;52.040;4.490;2024-01-15T01:00:15;5.50;99.90
41447;DHT22;27185;52.040;4.490;2024-01-15T01:03:00;5.50;99.90
41447;DHT22;27185;52.040;4.490;2024-01-15T01:05:48;5.60;99.90
41447;DHT22;27185;52.040;4.490;2024-01-15T01:08:35;5.60;99.90
41447;DHT22;27185;52.040;4.490;2024-01-15T01:11:20;5.60;99.90
41447;DHT22;27185;52.040;4.490;2024-01-15T01:14:06;5.60;99.90
41447;DHT22;27185;52.040;4.490;2024-01-15T01:16:52;5.60;99.90
41447;DHT22;27185;52.040;4.490;2024-01-15T01:19:37;5.60;99.90
41447;DHT22;27185;52.040;4.490;2024-01-15T01:22:23;5.60;99.90
41447;DHT22;27185;52.040;4.490;2024-01-15T01:25:09;5.60;99.90
41447;DHT22;27185;52.040;4.490;2024-01-15T01:27:54;5.60;99.90
41447;DHT22;27185;52.040;4.490;2024-01-15T01:30:40;5.60;99.90
41447;DHT22;27185;52.040;4.490;2024-01-15T01:33:25;5.60;99.90
41447;DHT22;27185;52.040;4.490;2024-01-15T01:36:11;5.60;99.90
41447;DHT22;27185;52.040;4.490;2024-01-15T01:38:56;5.60;99.90
41447;DHT22;27185;52.040;4.490;2024-01-15T01:41:42;5.50;99.90
41447;DHT22;27185;52.040;4.490;2024-01-15T01:44:27;5.50;99.90
41447;DHT22;27185;52.040;4.490;2024-01-15T01:47:14;5.50;99.90
41447;DHT22;27185;52.040;4.490;2024-01-15T01:50:02;5.40;99.90
41447;DHT22;27185;52.040;4.490;2024-01-15T01:52:48;5.50;99.90
41447;DHT22;27185;52.040;4.490;2024-01-15T01:55:34;5.40;99.90
41447;DHT22;27185;52.040;4.490;2024-01-15T01:58:21;5.40;99.90
41447;DHT22;27185;52.040;4.490;2024-01-15T02:01:07;5.40;99.90
41447;DHT22;27185;52.040;4.490;2024-01-15T02:03:52;5.40;99.90
41447;DHT22;27185;52.040;4.490;2024-01-15T02:06:38;5.30;99.90
41447;DHT22;27185;52.040;4.490;2024-01-15T02:09:24;5.30;99.90
41447;DHT22;27185;52.040;4.490;2024-01-15T02:12:10;5.30;99.90
41447;DHT22;27185;52.040;4.490;2024-01-15T02:14:56;5.30;99.90
41447;DHT22;27185;52.040;4.490;2024-01-15T02:18:03;5.30;99.90
41447;DHT22;27185;52.040;4.490;2024-01-15T02:20:49;5.30;99.90
41447;DHT22;27185;52.040;4.490;2024-01-15T02:23:35;5.30;99.90
41447;DHT22;27185;52.040;4.490;2024-01-15T02:26:21;5.30;99.90
41447;DHT22;27185;52.040;4.490;2024-01-15T02:29:07;5.20;99.90
41447;DHT22;27185;52.040;4.490;2024-01-15T02:31:56;5.20;99.90
41447;DHT22;27185;52.040;4.490;2024-01-15T02:34:42;5.20;99.90
41447;DHT22;27185;52.040;4.490;2024-01-15T02:37:27;5.20;99.90
41447;DHT22;27185;52.040;4.490;2024-01-15T02:40:13;5.20;99.90
41447;DHT22;27185;52.040;4.490;2024-01-15T02:42:58;5.20;99.90
41447;DHT22;27185;52.040;4.490;2024-01-15T02:45:44;5.10;99.90
41447;DHT22;27185;52.040;4.490;2024-01-15T02:48:30;5.10;99.90
41447;DHT22;27185;52.040;4.490;2024-01-15T02:51:16;5.10;99.90
41447;DHT22;27185;52.040;4.490;2024-01-15T02:54:01;5.10;99.90
41447;DHT22;27185;52.040;4.490;2024-01-15T02:56:47;5.10;99.90
41447;DHT22;27185;52.040;4.490;2024-01-15T02:59:33;5.10;99.90
41447;DHT22;27185;52.040;4.490;2024-01-15T03:02:18;5.10;99.90
41447;DHT22;27185;52.040;4.490;2024-01-15T03:05:04;5.10;99.90
41447;DHT22;27185;52.040;4.490;2024-01-15T03:07:50;5.20;99.90
41447;DHT22;27185;52.040;4.490;2024-01-15T03:10:35;5.20;99.90
41447;DHT22;27185;52.040;4.490;2024-01-15T03:13:21;5.30;99.90
41447;DHT22;27185;52.040;4.490;2024-01-15T03:16:06;5.30;99.90
41447;DHT22;27185;52.040;4.490;2024-01-15T03:18:52;5.30;99.90
41447;DHT22;27185;52.040;4.490;2024-01-15T03:21:37;5.30;99.90
41447;DHT22;27185;52.040;4.490;2024-01-15T03:24:23;5.30;99.90
41447;DHT22;27185;52.040;4.490;2024-01-15T03:27:08;5.30;99.90
41447;DHT22;27185;52.040;4.490;2024-01-15T03:29:54;5.30;99.90
41447;DHT22;27185;52.040;4.490;2024-01-15T03:32:39;5.30;99.90
41447;DHT22;27185;52.040;4.490;2024-01-15T03:35:25;5.30;99.90
41447;DHT22;27185;52.040;4.490;2024-01-15T03:38:14;5.30;99.90
41447;DHT22;27185;52.040;4.490;2024-01-15T03:41:00;5.30;99.90
41447;DHT22;27185;52.040;4.490;2024-01-15T03:43:45;5.30;99.90
41447;DHT22;27185;52.040;4.490;2024-01-15T03:46:31;5.20;99.90
41447;DHT22;27185;52.040;4.490;2024-01-15T03:49:17;5.20;99.90
41447;DHT22;27185;52.040;4.490;2024-01-15T03:52:03;5.10;99.90
41447;DHT22;27185;52.040;4.490;2024-01-15T03:54:48;5.10;99.90
41447;DHT22;27185;52.040;4.490;2024-01-15T03:57:34;5.00;99.90
41447;DHT22;27185;52.040;4.490;2024-01-15T04:00:19;5.00;99.90
41447;DHT22;27185;52.040;4.490;2024-01-15T04:03:05;5.00;99.90
41447;DHT22;27185;52.040;4.490;2024-01-15T04:05:51;4.90;99.90
41447;DHT22;27185;52.040;4.490;2024-01-15T04:08:36;4.90;99.90
41447;DHT22;27185;52.040;4.490;2024-01-15T04:11:22;4.90;99.90
41447;DHT22;27185;52.040;4.490;2024-01-15T04:14:07;5.00;99.90
41447;DHT22;27185;52.040;4.490;2024-01-15T04:16:53;5.00;99.90
41447;DHT22;27185;52.040;4.490;2024-01-15T04:19:39;5.00;99.90
41447;DHT22;27185;52.040;4.490;2024-01-15T04:22:25;5.10;99.90
41447;DHT22;27185;52.040;4.490;2024-01-15T04:25:10;5.00;99.90
41447;DHT22;27185;52.040;4.490;2024-01-15T04:27:56;5.00;99.90
41447;DHT22;27185;52.040;4.490;2024-01-15T04:30:42;4.90;99.90
41447;DHT22;27185;52.040;4.490;2024-01-15T04:33:27;4.80;99.90
41447;DHT22;27185;52.040;4.490;2024-01-15T04:36:13;4.70;99.90
41447;DHT22;27185;52.040;4.490;2024-01-15T04:38:58;4.70;99.90
41447;DHT22;27185;52.040;4.490;2024-01-15T04:41:44;4.60;99.90
41447;DHT22;27185;52.040;4.490;2024-01-15T04:44:29;4.60;99.90
41447;DHT22;27185;52.040;4.490;2024-01-15T04:47:15;4.50;99.90
41447;DHT22;27185;52.040;4.490;2024-01-15T04:50:00;4.40;99.90
41447;DHT22;27185;52.040;4.490;2024-01-15T04:52:46;4.30;99.90
41447;DHT22;27185;52.040;4.490;2024-01-15T04:55:32;4.20;99.90
41447;DHT22;27185;52.040;4.490;2024-01-15T04:58:17;4.10;99.90
41447;DHT22;27185;52.040;4.490;2024-01-15T05:01:08;4.00;99.90
41447;DHT22;27185;52.040;4.490;2024-01-15T05:03:53;4.00;99.90
41447;DHT22;27185;52.040;4.490;2024-01-15T05:06:39;3.90;99.90
41447;DHT22;27185;52.040;4.490;2024-01-15T05:09:24;3.80;99.90
41447;DHT22;27185;52.040;4.490;2024-01-15T05:12:10;3.70;99.90
41447;DHT22;27185;52.040;4.490;2024-01-15T05:14:56;3.70;99.90
41447;DHT22;27185;52.040;4.490;2024-01-15T05:17:42;3.60;99.90
41447;DHT22;27185;52.040;4.490;2024-01-15T05:20:27;3.70;99.90
41447;DHT22;27185;52.040;4.490;2024-01-15T05:23:13;3.60;99.90
41447;DHT22;27185;52.040;4.490;2024-01-15T05:25:59;3.60;99.90
41447;DHT22;27185;52.040;4.490;2024-01-15T05:28:44;3.60;99.90
41447;DHT22;27185;52.040;4.490;2024-01-15T05:31:30;3.60;99.90
41447;DHT22;27185;52.040;4.490;2024-01-15T05:34:15;3.60;99.90
41447;DHT22;27185;52.040;4.490;2024-01-15T05:37:01;3.70;99.90
41447;DHT22;27185;52.040;4.490;2024-01-15T05:39:46;3.70;99.90
41447;DHT22;27185;52.040;4.490;2024-01-15T05:42:32;3.70;99.90
41447;DHT22;27185;52.040;4.490;2024-01-15T05:45:17;3.70;99.90
41447;DHT22;27185;52.040;4.490;2024-01-15T05:48:03;3.70;99.90
41447;DHT22;27185;52.040;4.490;2024-01-15T05:50:49;3.70;99.90
41447;DHT22;27185;52.040;4.490;2024-01-15T05:53:34;3.80;99.90
41447;DHT22;27185;52.040;4.490;2024-01-15T05:56:20;3.80;99.90
41447;DHT22;27185;52.040;4.490;2024-01-15T05:59:06;3.80;99.90
41447;DHT22;27185;52.040;4.490;2024-01-15T06:01:51;3.80;99.90
41447;DHT22;27185;52.040;4.490;2024-01-15T06:04:37;3.80;99.90
41447;DHT22;27185;52.040;4.490;2024-01-15T06:07:23;3.90;99.90
41447;DHT22;27185;52.040;4.490;2024-01-15T06:10:09;4.00;99.90
41447;DHT22;27185;52.040;4.490;2024-01-15T06:12:54;4.00;99.90
41447;DHT22;27185;52.040;4.490;2024-01-15T06:15:40;4.10;99.90
41447;DHT22;27185;52.040;4.490;2024-01-15T06:18:25;4.20;99.90
41447;DHT22;27185;52.040;4.490;2024-01-15T06:21:11;4.30;99.90
41447;DHT22;27185;52.040;4.490;2024-01-15T06:23:59;4.40;99.90
41447;DHT22;27185;52.040;4.490;2024-01-15T06:26:46;4.40;99.90
41447;DHT22;27185;52.040;4.490;2024-01-15T06:29:32;4.40;99.90
41447;DHT22;27185;52.040;4.490;2024-01-15T06:32:17;4.30;99.90
41447;DHT22;27185;52.040;4.490;2024-01-15T06:35:03;4.20;99.90
41447;DHT22;27185;52.040;4.490;2024-01-15T06:37:49;4.00;99.90
41447;DHT22;27185;52.040;4.490;2024-01-15T06:40:35;3.90;99.90
41447;DHT22;27185;52.040;4.490;2024-01-15T06:43:21;3.90;99.90
41447;DHT22;27185;52.040;4.490;2024-01-15T06:46:07;3.80;99.90
41447;DHT22;27185;52.040;4.490;2024-01-15T06:48:52;3.70;99.90
41447;DHT22;27185;52.040;4.490;2024-01-15T06:51:38;3.60;99.90
41447;DHT22;27185;52.040;4.490;2024-01-15T06:54:36;3.60;99.90
41447;DHT22;27185;52.040;4.490;2024-01-15T06:57:21;3.60;99.90
41447;DHT22;27185;52.040;4.490;2024-01-15T07:00:07;3.60;99.90
41447;DHT22;27185;52.040;4.490;2024-01-15T07:02:59;3.70;99.90
41447;DHT22;27185;52.040;4.490;2024-01-15T07:05:44;3.70;99.90
41447;DHT22;27185;52.040;4.490;2024-01-15T07:08:30;3.70;99.90
41447;DHT22;27185;52.040;4.490;2024-01-15T07:11:15;3.70;99.90
41447;DHT22;27185;52.040;4.490;2024-01-15T07:14:01;3.70;99.90
41447;DHT22;27185;52.040;4.490;2024-01-15T07:16:46;3.70;99.90
41447;DHT22;27185;52.040;4.490;2024-01-15T07:19:32;3.80;99.90
41447;DHT22;27185;52.040;4.490;2024-01-15T07:22:19;3.80;99.90
41447;DHT22;27185;52.040;4.490;2024-01-15T07:25:05;3.80;99.90
41447;DHT22;27185;52.040;4.490;2024-01-15T07:27:52;3.80;99.90
41447;DHT22;27185;52.040;4.490;2024-01-15T07:30:39;3.90;99.90
41447;DHT22;27185;52.040;4.490;2024-01-15T07:33:25;3.90;99.90
41447;DHT22;27185;52.040;4.490;2024-01-15T07:36:11;4.00;99.90
41447;DHT22;27185;52.040;4.490;2024-01-15T07:38:57;3.90;99.90
41447;DHT22;27185;52.040;4.490;2024-01-15T07:41:43;3.90;99.90
41447;DHT22;27185;52.040;4.490;2024-01-15T07:44:29;3.90;99.90
41447;DHT22;27185;52.040;4.490;2024-01-15T07:47:15;3.90;99.90
41447;DHT22;27185;52.040;4.490;2024-01-15T07:50:00;3.90;99.90
41447;DHT22;27185;52.040;4.490;2024-01-15T07:52:46;4.00;99.90
41447;DHT22;27185;52.040;4.490;2024-01-15T07:55:32;4.10;99.90
41447;DHT22;27185;52.040;4.490;2024-01-15T07:58:17;4.10;99.90
41447;DHT22;27185;52.040;4.490;2024-01-15T08:01:03;4.20;99.90
41447;DHT22;27185;52.040;4.490;2024-01-15T08:03:49;4.30;99.90
41447;DHT22;27185;52.040;4.490;2024-01-15T08:06:34;4.40;99.90
41447;DHT22;27185;52.040;4.490;2024-01-15T08:09:20;4.50;99.90
41447;DHT22;27185;52.040;4.490;2024-01-15T08:12:06;4.60;99.90
41447;DHT22;27185;52.040;4.490;2024-01-15T08:14:52;4.60;99.90
41447;DHT22;27185;52.040;4.490;2024-01-15T08:17:37;4.60;99.90
41447;DHT22;27185;52.040;4.490;2024-01-15T08:20:23;4.60;99.90
41447;DHT22;27185;52.040;4.490;2024-01-15T08:23:08;4.70;99.90
41447;DHT22;27185;52.040;4.490;2024-01-15T08:25:55;4.60;99.90
41447;DHT22;27185;52.040;4.490;2024-01-15T08:28:40;4.70;99.90
41447;DHT22;27185;52.040;4.490;2024-01-15T08:31:26;4.70;99.90
41447;DHT22;27185;52.040;4.490;2024-01-15T08:34:12;4.60;99.90
41447;DHT22;27185;52.040;4.490;2024-01-15T08:36:58;4.60;99.90
41447;DHT22;27185;52.040;4.490;2024-01-15T08:39:43;4.70;99.90
41447;DHT22;27185;52.040;4.490;2024-01-15T08:42:29;4.70;99.90
41447;DHT22;27185;52.040;4.490;2024-01-15T08:45:15;4.70;99.90
41447;DHT22;27185;52.040;4.490;2024-01-15T08:48:00;4.70;99.90
41447;DHT22;27185;52.040;4.490;2024-01-15T08:50:46;4.80;99.90
41447;DHT22;27185;52.040;4.490;2024-01-15T08:53:32;4.90;99.90
41447;DHT22;27185;52.040;4.490;2024-01-15T08:56:20;4.90;99.90
41447;DHT22;27185;52.040;4.490;2024-01-15T08:59:05;5.00;99.90
41447;DHT22;27185;52.040;4.490;2024-01-15T09:01:52;5.10;99.90
41447;DHT22;27185;52.040;4.490;2024-01-15T09:04:38;5.10;99.90
41447;DHT22;27185;52.040;4.490;2024-01-15T09:07:24;5.10;99.90
41447;DHT22;27185;52.040;4.490;2024-01-15T09:10:10;5.10;99.90
41447;DHT22;27185;52.040;4.490;2024-01-15T09:12:56;5.00;99.90
41447;DHT22;27185;52.040;4.490;2024-01-15T09:15:42;4.90;99.90
41447;DHT22;27185;52.040;4.490;2024-01-15T09:18:28;4.80;99.90
41447;DHT22;27185;52.040;4.490;2024-01-15T09:21:13;4.70;99.90
41447;DHT22;27185;52.040;4.490;2024-01-15T09:24:02;4.60;99.90
41447;DHT22;27185;52.040;4.490;2024-01-15T09:26:48;4.60;99.90
41447;DHT22;27185;52.040;4.490;2024-01-15T09:29:33;4.50;99.90
41447;DHT22;27185;52.040;4.490;2024-01-15T09:32:19;4.50;99.90
41447;DHT22;27185;52.040;4.490;2024-01-15T09:35:05;4.50;99.90
41447;DHT22;27185;52.040;4.490;2024-01-15T09:37:52;4.60;99.90
41447;DHT22;27185;52.040;4.490;2024-01-15T09:40:38;4.60;99.90
41447;DHT22;27185;52.040;4.490;2024-01-15T09:43:24;4.70;99.90
41447;DHT22;27185;52.040;4.490;2024-01-15T09:46:10;4.70;99.90
41447;DHT22;27185;52.040;4.490;2024-01-15T09:48:56;4.80;99.90
41447;DHT22;27185;52.040;4.490;2024-01-15T09:51:42;4.80;99.90
41447;DHT22;27185;52.040;4.490;2024-01-15T09:54:28;4.90;99.90
41447;DHT22;27185;52.040;4.490;2024-01-15T09:57:14;4.90;99.90
41447;DHT22;27185;52.040;4.490;2024-01-15T10:00:01;4.90;99.90
41447;DHT22;27185;52.040;4.490;2024-01-15T10:02:49;4.90;99.90
41447;DHT22;27185;52.040;4.490;2024-01-15T10:05:35;4.90;99.90
41447;DHT22;27185;52.040;4.490;2024-01-15T10:08:21;4.90;99.90
41447;DHT22;27185;52.040;4.490;2024-01-15T10:11:08;4.90;99.90
41447;DHT22;27185;52.040;4.490;2024-01-15T10:13:53;4.90;99.90
41447;DHT22;27185;52.040;4.490;2024-01-15T10:16:43;4.80;99.90
41447;DHT22;27185;52.040;4.490;2024-01-15T10:19:31;4.80;99.90
41447;DHT22;27185;52.040;4.490;2024-01-15T10:22:17;4.70;99.90
41447;DHT22;27185;52.040;4.490;2024-01-15T10:25:05;4.80;99.90
41447;DHT22;27185;52.040;4.490;2024-01-15T10:28:09;4.80;99.90
41447;DHT22;27185;52.040;4.490;2024-01-15T10:30:57;4.80;99.90
41447;DHT22;27185;52.040;4.490;2024-01-15T10:33:43;4.80;99.90
41447;DHT22;27185;52.040;4.490;2024-01-15T10:36:29;4.80;99.90
41447;DHT22;27185;52.040;4.490;2024-01-15T10:39:15;4.80;99.90
41447;DHT22;27185;52.040;4.490;2024-01-15T10:42:01;4.80;99.90
41447;DHT22;27185;52.040;4.490;2024-01-15T10:44:47;4.90;99.90
41447;DHT22;27185;52.040;4.490;2024-01-15T10:47:33;5.00;99.90
41447;DHT22;27185;52.040;4.490;2024-01-15T10:50:29;5.10;99.90
41447;DHT22;27185;52.040;4.490;2024-01-15T10:53:16;5.30;99.90
41447;DHT22;27185;52.040;4.490;2024-01-15T10:56:04;5.40;99.90
41447;DHT22;27185;52.040;4.490;2024-01-15T10:58:51;5.50;99.90
41447;DHT22;27185;52.040;4.490;2024-01-15T11:01:37;5.60;99.90
41447;DHT22;27185;52.040;4.490;2024-01-15T11:04:23;5.70;99.90
41447;DHT22;27185;52.040;4.490;2024-01-15T11:07:13;5.80;99.90
41447;DHT22;27185;52.040;4.490;2024-01-15T11:09:59;5.90;99.90
41447;DHT22;27185;52.040;4.490;2024-01-15T11:12:47;6.00;99.90
41447;DHT22;27185;52.040;4.490;2024-01-15T11:16:05;6.10;99.90
41447;DHT22;27185;52.040;4.490;2024-01-15T11:21:43;6.20;99.90
41447;DHT22;27185;52.040;4.490;2024-01-15T11:24:37;6.30;99.90
41447;DHT22;27185;52.040;4.490;2024-01-15T11:27:55;6.30;99.90
41447;DHT22;27185;52.040;4.490;2024-01-15T11:30:41;6.40;99.90
41447;DHT22;27185;52.040;4.490;2024-01-15T11:33:34;6.40;99.90
41447;DHT22;27185;52.040;4.490;2024-01-15T11:36:19;6.50;99.90
41447;DHT22;27185;52.040;4.490;2024-01-15T11:42:17;6.60;99.90
41447;DHT22;27185;52.040;4.490;2024-01-15T11:45:05;6.50;99.90
41447;DHT22;27185;52.040;4.490;2024-01-15T11:48:09;6.50;99.90
41447;DHT22;27185;52.040;4.490;2024-01-15T11:50:58;6.50;99.90
41447;DHT22;27185;52.040;4.490;2024-01-15T11:53:49;6.40;99.90
41447;DHT22;27185;52.040;4.490;2024-01-15T11:56:38;6.40;99.90
41447;DHT22;27185;52.040;4.490;2024-01-15T11:59:24;6.30;99.90
41447;DHT22;27185;52.040;4.490;2024-01-15T12:02:10;6.10;99.90
41447;DHT22;27185;52.040;4.490;2024-01-15T12:04:58;5.90;99.90
41447;DHT22;27185;52.040;4.490;2024-01-15T12:07:48;5.80;99.90
41447;DHT22;27185;52.040;4.490;2024-01-15T12:10:36;5.70;99.90
41447;DHT22;27185;52.040;4.490;2024-01-15T12:13:22;5.50;99.90
41447;DHT22;27185;52.040;4.490;2024-01-15T12:16:07;5.40;99.90
41447;DHT22;27185;52.040;4.490;2024-01-15T12:18:53;5.30;99.90
41447;DHT22;27185;52.040;4.490;2024-01-15T12:21:39;5.20;99.90
41447;DHT22;27185;52.040;4.490;2024-01-15T12:24:25;5.20;99.90
41447;DHT22;27185;52.040;4.490;2024-01-15T12:27:11;5.30;99.90
41447;DHT22;27185;52.040;4.490;2024-01-15T12:29:58;5.30;99.90
41447;DHT22;27185;52.040;4.490;2024-01-15T12:32:44;5.40;99.90
41447;DHT22;27185;52.040;4.490;2024-01-15T12:35:33;5.50;99.90
41447;DHT22;27185;52.040;4.490;2024-01-15T12:38:19;5.60;99.90
41447;DHT22;27185;52.040;4.490;2024-01-15T12:41:06;5.70;99.90
41447;DHT22;27185;52.040;4.490;2024-01-15T12:43:51;5.80;99.90
41447;DHT22;27185;52.040;4.490;2024-01-15T12:46:37;6.00;99.90
41447;DHT22;27185;52.040;4.490;2024-01-15T12:49:24;6.10;99.90
41447;DHT22;27185;52.040;4.490;2024-01-15T12:52:09;6.20;99.90
41447;DHT22;27185;52.040;4.490;2024-01-15T12:54:56;6.20;99.90
41447;DHT22;27185;52.040;4.490;2024-01-15T12:57:41;6.30;99.90
41447;DHT22;27185;52.040;4.490;2024-01-15T13:00:27;6.30;99.90
41447;DHT22;27185;52.040;4.490;2024-01-15T13:03:13;6.30;99.90
41447;DHT22;27185;52.040;4.490;2024-01-15T13:05:58;6.40;99.90
41447;DHT22;27185;52.040;4.490;2024-01-15T13:08:44;6.50;99.90
41447;DHT22;27185;52.040;4.490;2024-01-15T13:11:30;6.50;99.90
41447;DHT22;27185;52.040;4.490;2024-01-15T13:14:15;6.50;99.90
41447;DHT22;27185;52.040;4.490;2024-01-15T13:17:13;6.50;99.90
41447;DHT22;27185;52.040;4.490;2024-01-15T13:20:00;6.50;99.90
41447;DHT22;27185;52.040;4.490;2024-01-15T13:22:45;6.40;99.90
41447;DHT22;27185;52.040;4.490;2024-01-15T13:25:31;6.30;99.90
41447;DHT22;27185;52.040;4.490;2024-01-15T13:28:37;6.20;99.90
41447;DHT22;27185;52.040;4.490;2024-01-15T13:31:22;6.10;99.90
41447;DHT22;27185;52.040;4.490;2024-01-15T13:34:08;6.00;99.90
41447;DHT22;27185;52.040;4.490;2024-01-15T13:36:54;6.00;99.90
41447;DHT22;27185;52.040;4.490;2024-01-15T13:39:41;5.90;99.90
41447;DHT22;27185;52.040;4.490;2024-01-15T13:42:26;5.80;99.90
41447;DHT22;27185;52.040;4.490;2024-01-15T13:45:13;5.80;99.90
41447;DHT22;27185;52.040;4.490;2024-01-15T13:48:02;5.70;99.90
41447;DHT22;27185;52.040;4.490;2024-01-15T13:50:50;5.60;99.90
41447;DHT22;27185;52.040;4.490;2024-01-15T13:53:37;5.40;99.90
41447;DHT22;27185;52.040;4.490;2024-01-15T13:56:23;5.40;99.90
41447;DHT22;27185;52.040;4.490;2024-01-15T13:59:09;5.30;99.90
41447;DHT22;27185;52.040;4.490;2024-01-15T14:01:54;5.20;99.90
41447;DHT22;27185;52.040;4.490;2024-01-15T14:04:40;5.20;99.90
41447;DHT22;27185;52.040;4.490;2024-01-15T14:07:26;5.20;99.90
41447;DHT22;27185;52.040;4.490;2024-01-15T14:10:12;5.30;99.90
41447;DHT22;27185;52.040;4.490;2024-01-15T14:12:59;5.40;99.90
41447;DHT22;27185;52.040;4.490;2024-01-15T14:15:45;5.60;99.90
41447;DHT22;27185;52.040;4.490;2024-01-15T14:18:30;5.90;99.90
41447;DHT22;27185;52.040;4.490;2024-01-15T14:21:16;6.10;99.90
41447;DHT22;27185;52.040;4.490;2024-01-15T14:24:02;6.30;99.90
41447;DHT22;27185;52.040;4.490;2024-01-15T14:26:47;6.60;99.90
41447;DHT22;27185;52.040;4.490;2024-01-15T14:29:33;6.70;99.90
41447;DHT22;27185;52.040;4.490;2024-01-15T14:32:19;6.90;99.90
41447;DHT22;27185;52.040;4.490;2024-01-15T14:35:05;6.80;99.90
41447;DHT22;27185;52.040;4.490;2024-01-15T14:37:51;6.80;99.90
41447;DHT22;27185;52.040;4.490;2024-01-15T14:40:36;6.70;99.90
41447;DHT22;27185;52.040;4.490;2024-01-15T14:43:22;6.80;99.90
41447;DHT22;27185;52.040;4.490;2024-01-15T14:46:08;6.70;99.90
41447;DHT22;27185;52.040;4.490;2024-01-15T14:48:54;6.70;99.90
41447;DHT22;27185;52.040;4.490;2024-01-15T14:51:39;6.60;99.90
41447;DHT22;27185;52.040;4.490;2024-01-15T14:54:25;6.50;99.90
41447;DHT22;27185;52.040;4.490;2024-01-15T14:57:11;6.50;99.90
41447;DHT22;27185;52.040;4.490;2024-01-15T14:59:56;6.50;99.90
41447;DHT22;27185;52.040;4.490;2024-01-15T15:02:48;6.40;99.90
41447;DHT22;27185;52.040;4.490;2024-01-15T15:05:34;6.50;99.90
41447;DHT22;27185;52.040;4.490;2024-01-15T15:08:19;6.30;99.90
41447;DHT22;27185;52.040;4.490;2024-01-15T15:11:05;6.10;99.90
41447;DHT22;27185;52.040;4.490;2024-01-15T15:13:51;5.90;99.90
41447;DHT22;27185;52.040;4.490;2024-01-15T15:16:36;5.70;99.90
41447;DHT22;27185;52.040;4.490;2024-01-15T15:19:22;5.40;99.90
41447;DHT22;27185;52.040;4.490;2024-01-15T15:22:08;5.20;99.90
41447;DHT22;27185;52.040;4.490;2024-01-15T15:24:56;5.10;99.90
41447;DHT22;27185;52.040;4.490;2024-01-15T15:27:42;4.90;99.90
41447;DHT22;27185;52.040;4.490;2024-01-15T15:30:28;4.80;99.90
41447;DHT22;27185;52.040;4.490;2024-01-15T15:33:13;4.70;99.90
41447;DHT22;27185;52.040;4.490;2024-01-15T15:36:01;4.70;99.90
41447;DHT22;27185;52.040;4.490;2024-01-15T15:38:50;4.70;99.90
41447;DHT22;27185;52.040;4.490;2024-01-15T15:41:35;4.70;99.90
41447;DHT22;27185;52.040;4.490;2024-01-15T15:44:22;4.70;99.90
41447;DHT22;27185;52.040;4.490;2024-01-15T15:47:07;4.70;99.90
41447;DHT22;27185;52.040;4.490;2024-01-15T15:49:53;4.60;99.90
41447;DHT22;27185;52.040;4.490;2024-01-15T15:52:39;4.50;99.90
41447;DHT22;27185;52.040;4.490;2024-01-15T15:55:24;4.50;99.90
41447;DHT22;27185;52.040;4.490;2024-01-15T15:58:10;4.50;99.90
41447;DHT22;27185;52.040;4.490;2024-01-15T16:00:56;4.50;99.90
41447;DHT22;27185;52.040;4.490;2024-01-15T16:03:41;4.50;99.90
41447;DHT22;27185;52.040;4.490;2024-01-15T16:06:27;4.50;99.90
41447;DHT22;27185;52.040;4.490;2024-01-15T16:09:13;4.50;99.90
41447;DHT22;27185;52.040;4.490;2024-01-15T16:11:59;4.50;99.90
41447;DHT22;27185;52.040;4.490;2024-01-15T16:14:44;4.50;99.90
41447;DHT22;27185;52.040;4.490;2024-01-15T16:17:30;4.50;99.90
41447;DHT22;27185;52.040;4.490;2024-01-15T16:20:17;4.50;99.90
41447;DHT22;27185;52.040;4.490;2024-01-15T16:23:02;4.50;99.90
41447;DHT22;27185;52.040;4.490;2024-01-15T16:25:49;4.50;99.90
41447;DHT22;27185;52.040;4.490;2024-01-15T16:28:34;4.60;99.90
41447;DHT22;27185;52.040;4.490;2024-01-15T16:31:20;4.60;99.90
41447;DHT22;27185;52.040;4.490;2024-01-15T16:34:06;4.60;99.90
41447;DHT22;27185;52.040;4.490;2024-01-15T16:36:51;4.70;99.90
41447;DHT22;27185;52.040;4.490;2024-01-15T16:39:37;4.80;99.90
41447;DHT22;27185;52.040;4.490;2024-01-15T16:42:22;4.80;99.90
41447;DHT22;27185;52.040;4.490;2024-01-15T16:45:08;4.90;99.90
41447;DHT22;27185;52.040;4.490;2024-01-15T16:47:54;4.90;99.90
41447;DHT22;27185;52.040;4.490;2024-01-15T16:50:40;5.00;99.90
41447;DHT22;27185;52.040;4.490;2024-01-15T16:53:25;5.00;99.90
41447;DHT22;27185;52.040;4.490;2024-01-15T16:56:11;5.00;99.90
41447;DHT22;27185;52.040;4.490;2024-01-15T16:58:56;5.00;99.90
41447;DHT22;27185;52.040;4.490;2024-01-15T17:01:42;5.00;99.90
41447;DHT22;27185;52.040;4.490;2024-01-15T17:04:29;4.90;99.90
41447;DHT22;27185;52.040;4.490;2024-01-15T17:07:14;4.70;99.90
41447;DHT22;27185;52.040;4.490;2024-01-15T17:10:00;4.50;99.90
41447;DHT22;27185;52.040;4.490;2024-01-15T17:12:45;4.40;99.90
41447;DHT22;27185;52.040;4.490;2024-01-15T17:15:32;4.20;99.90
41447;DHT22;27185;52.040;4.490;2024-01-15T17:18:18;4.10;99.90
41447;DHT22;27185;52.040;4.490;2024-01-15T17:21:04;4.00;99.90
41447;DHT22;27185;52.040;4.490;2024-01-15T17:23:51;3.90;99.90
41447;DHT22;27185;52.040;4.490;2024-01-15T17:26:36;3.80;99.90
41447;DHT22;27185;52.040;4.490;2024-01-15T17:29:22;3.70;99.90
41447;DHT22;27185;52.040;4.490;2024-01-15T17:32:08;3.70;99.90
41447;DHT22;27185;52.040;4.490;2024-01-15T17:34:54;3.70;99.90
41447;DHT22;27185;52.040;4.490;2024-01-15T17:37:39;3.60;99.90
41447;DHT22;27185;52.040;4.490;2024-01-15T17:40:25;3.60;99.90
41447;DHT22;27185;52.040;4.490;2024-01-15T17:43:11;3.60;99.90
41447;DHT22;27185;52.040;4.490;2024-01-15T17:45:56;3.60;99.90
41447;DHT22;27185;52.040;4.490;2024-01-15T17:48:47;3.60;99.90
41447;DHT22;27185;52.040;4.490;2024-01-15T17:51:33;3.70;99.90
41447;DHT22;27185;52.040;4.490;2024-01-15T17:54:19;3.80;99.90